Time;durP1;ratioP1;P1;durP2;ratioP2;P2;SDS_P1;SDS_P2;PMS_P1;PMS_P2;Temp;Humidity;BMP_temperature;BMP_pressure;BME280_temperature;BME280_humidity;BME280_pressure;Samples;Min_cycle;Max_cycle;Signal;HPM_P1;HPM_P2
2023/06/24 00:01:57;;;;;;;;;12.50;12.50;;;;;22.88;56.58;101626.03;5054674;28;45672;-71
2023/06/24 00:04:23;;;;;;;;;11.00;11.00;;;;;22.87;56.90;101631.53;5054254;28;45608;-76
2023/06/24 00:06:48;;;;;;;;;14.75;14.75;;;;;22.79;56.98;101629.41;5054769;28;45841;-72
2023/06/24 00:09:14;;;;;;;;;13.25;13.25;;;;;22.80;57.04;101623.09;5054872;28;45517;-70
2023/06/24 00:11:39;;;;;;;;;13.25;13.25;;;;;22.77;56.93;101618.78;5054934;28;45310;-72
2023/06/24 00:14:06;;;;;;;;;16.00;16.00;;;;;22.75;57.16;101623.41;5054857;28;46239;-74
2023/06/24 00:16:32;;;;;;;;;9.25;9.25;;;;;22.74;57.34;101626.22;5054840;28;45346;-75
2023/06/24 00:18:58;;;;;;;;;6.75;6.75;;;;;22.78;57.46;101630.38;5053402;28;45366;-75
2023/06/24 00:21:29;;;;;;;;;8.00;8.00;;;;;22.77;57.70;101628.69;5054961;28;45368;-73
2023/06/24 00:23:54;;;;;;;;;7.75;7.75;;;;;;;;5054360;28;46430;-72
2023/06/24 00:26:20;;;;;;;;;6.25;6.25;;;;;22.68;57.69;101624.00;5070228;28;45264;-68
2023/06/24 00:28:45;;;;;;;;;5.00;5.00;;;;;22.69;57.74;101628.41;5057886;28;50352;-72
2023/06/24 00:31:11;;;;;;;;;9.25;9.25;;;;;22.67;57.64;101619.63;5058048;28;45611;-69
2023/06/24 00:33:36;;;;;;;;;6.00;6.00;;;;;22.67;57.85;101622.28;5057698;28;45836;-70
2023/06/24 00:36:02;;;;;;;;;7.25;7.25;;;;;22.65;58.00;101619.72;5057839;28;45355;-74
2023/06/24 00:38:32;;;;;;;;;9.50;9.00;;;;;22.66;57.80;101618.75;5058005;28;45301;-74
2023/06/24 00:40:58;;;;;;;;;8.25;8.25;;;;;22.63;57.86;101616.28;5058226;28;45425;-77
2023/06/24 00:43:23;;;;;;;;;7.50;7.50;;;;;22.60;57.84;101614.72;5058105;28;46264;-73
2023/06/24 00:45:49;;;;;;;;;8.25;8.25;;;;;22.57;57.79;101619.44;5059210;28;45497;-73
2023/06/24 00:48:15;;;;;;;;;7.00;7.00;;;;;22.57;57.62;101623.00;5057364;28;45439;-73
2023/06/24 00:50:45;;;;;;;;;7.50;7.50;;;;;22.49;58.02;101622.72;5058843;28;45168;-75
2023/06/24 00:53:11;;;;;;;;;5.75;5.75;;;;;22.46;57.95;101617.59;5058225;28;46097;-75
2023/06/24 00:55:37;;;;;;;;;7.00;7.00;;;;;22.49;57.81;101622.72;5056013;28;45636;-73
2023/06/24 00:58:02;;;;;;;;;7.00;7.00;;;;;22.50;58.15;101620.88;5057786;28;45324;-75
2023/06/24 01:00:28;;;;;;;;;7.00;7.00;;;;;22.41;57.80;101612.50;5058395;28;45437;-75
2023/06/24 01:02:53;;;;;;;;;6.25;6.25;;;;;22.54;57.98;101628.59;5057482;28;45511;-71
2023/06/24 01:05:23;;;;;;;;;8.00;8.00;;;;;22.37;58.00;101627.13;5058001;28;45328;-74
2023/06/24 01:07:54;;;;;;;;;8.00;8.00;;;;;22.30;58.14;101617.81;5059055;28;45226;-71
2023/06/24 01:10:22;;;;;;;;;7.75;7.75;;;;;22.28;58.32;101622.44;5062062;28;45366;-71
2023/06/24 01:12:48;;;;;;;;;5.75;5.75;;;;;22.20;58.81;101614.09;5079328;28;46873;-75
2023/06/24 01:15:13;;;;;;;;;8.25;8.25;;;;;22.18;58.84;101620.44;5068593;28;45442;-72
2023/06/24 01:18:11;;;;;;;;;7.00;7.00;;;;;22.15;58.94;101620.66;5063841;28;45346;-75
2023/06/24 01:20:59;;;;;;;;;7.00;7.00;;;;;22.27;58.62;101613.56;5057691;28;45311;-73
2023/06/24 01:23:45;;;;;;;;;9.00;9.00;;;;;22.35;58.02;101617.50;5056992;28;46587;-75
2023/06/24 01:26:42;;;;;;;;;6.50;6.50;;;;;22.40;58.49;101615.31;5056920;28;45318;-72
2023/06/24 01:29:32;;;;;;;;;7.00;7.00;;;;;22.32;58.42;101616.75;5056886;28;45329;-71
2023/06/24 01:32:11;;;;;;;;;6.75;6.75;;;;;22.25;58.76;101615.47;5056964;28;45452;-72
2023/06/24 01:34:47;;;;;;;;;7.25;7.25;;;;;22.20;58.91;101616.78;5056479;28;47003;-72
2023/06/24 01:37:28;;;;;;;;;6.50;6.50;;;;;22.18;58.96;101609.72;5056742;28;45173;-75
2023/06/24 01:40:20;;;;;;;;;6.50;6.50;;;;;22.15;58.89;101606.38;5057223;28;45399;-74
2023/06/24 01:42:47;;;;;;;;;14.50;14.25;;;;;22.13;59.01;101608.31;5056854;28;45363;-72
2023/06/24 01:45:16;;;;;;;;;5.00;5.00;;;;;22.09;59.31;101602.34;5056529;28;45678;-73
2023/06/24 01:47:45;;;;;;;;;6.00;6.00;;;;;22.08;59.15;101599.78;5055029;28;45341;-74
2023/06/24 01:50:13;;;;;;;;;5.00;5.00;;;;;22.09;59.22;101597.00;5056833;28;45462;-73
2023/06/24 01:52:43;;;;;;;;;5.50;5.50;;;;;22.01;59.45;101591.34;5056861;28;45393;-71
2023/06/24 01:55:10;;;;;;;;;7.25;7.25;;;;;22.02;59.58;101598.41;5056231;28;46048;-73
2023/06/24 01:57:38;;;;;;;;;6.00;6.00;;;;;22.01;59.58;101600.22;5056601;28;45430;-72
2023/06/24 02:00:07;;;;;;;;;8.00;8.00;;;;;21.87;59.80;101595.00;5072138;28;45395;-70
2023/06/24 02:02:35;;;;;;;;;6.25;6.25;;;;;22.04;59.75;101596.47;5056795;28;45647;-70
2023/06/24 02:05:02;;;;;;;;;6.75;6.75;;;;;22.00;59.73;101589.63;5056727;28;45445;-73
2023/06/24 02:07:31;;;;;;;;;7.50;7.50;;;;;21.89;59.91;101593.94;5056336;28;45372;-71
2023/06/24 02:09:59;;;;;;;;;6.75;6.75;;;;;22.06;59.50;101597.22;5056363;28;45245;-69
2023/06/24 02:12:27;;;;;;;;;6.50;6.50;;;;;21.99;59.91;101591.44;5056464;28;45205;-72
2023/06/24 02:14:55;;;;;;;;;9.00;7.50;;;;;21.79;60.51;101584.00;5056415;28;45641;-71
2023/06/24 02:17:23;;;;;;;;;8.50;8.50;;;;;21.87;60.24;101589.66;5056168;28;45363;-73
2023/06/24 02:19:51;;;;;;;;;0.50;0.50;;;;;21.79;60.65;101600.06;5071937;28;45260;-73
2023/06/24 02:22:17;;;;;;;;;6.25;6.25;;;;;21.76;60.74;101597.59;5056324;28;45421;-74
2023/06/24 02:24:44;;;;;;;;;7.25;7.25;;;;;21.77;60.76;101607.34;5056028;28;46736;-75
2023/06/24 02:27:11;;;;;;;;;6.25;6.25;;;;;21.71;60.98;101600.59;5056269;28;45436;-75
2023/06/24 02:29:38;;;;;;;;;6.50;6.50;;;;;21.70;61.00;101607.78;5056226;28;45329;-72
2023/06/24 02:32:05;;;;;;;;;7.00;7.00;;;;;21.68;61.26;101604.38;5056192;28;45511;-72
2023/06/24 02:34:30;;;;;;;;;7.00;7.00;;;;;21.68;61.13;101604.38;5055832;28;45288;-70
2023/06/24 02:36:55;;;;;;;;;7.25;7.25;;;;;21.64;61.43;101612.72;5054920;28;45579;-71
2023/06/24 02:39:22;;;;;;;;;9.00;9.00;;;;;21.58;61.37;101597.94;5056252;28;45826;-73
2023/06/24 02:41:49;;;;;;;;;8.75;8.75;;;;;21.59;61.65;101599.63;5056141;28;45383;-68
2023/06/24 02:44:15;;;;;;;;;7.50;7.50;;;;;21.53;61.97;101600.91;5057686;28;45663;-70
2023/06/24 02:46:42;;;;;;;;;9.00;9.00;;;;;21.58;61.90;101604.13;5057890;28;45505;-75
2023/06/24 02:49:10;;;;;;;;;7.25;7.25;;;;;21.57;62.14;101607.75;5056191;28;45251;-72
2023/06/24 02:51:36;;;;;;;;;7.25;7.25;;;;;21.48;62.11;101595.03;5054653;28;45470;-69
2023/06/24 02:54:02;;;;;;;;;6.75;6.75;;;;;21.46;62.18;101599.63;5055701;28;46378;-74
2023/06/24 02:56:28;;;;;;;;;5.25;5.25;;;;;21.41;62.48;101601.78;5054535;28;45834;-72
2023/06/24 02:58:54;;;;;;;;;8.00;8.00;;;;;21.39;62.43;101595.69;5079371;27;45362;-72
2023/06/24 03:01:24;;;;;;;;;7.00;7.00;;;;;21.45;62.45;101605.94;5065780;28;45314;-71
2023/06/24 03:03:52;;;;;;;;;6.75;6.75;;;;;21.45;62.86;101608.63;5065461;28;46933;-71
2023/06/24 03:06:18;;;;;;;;;7.25;7.25;;;;;21.41;62.74;101609.81;5060536;28;45274;-73
2023/06/24 03:08:45;;;;;;;;;6.25;6.25;;;;;21.38;62.90;101602.00;5056061;28;45437;-73
2023/06/24 03:11:14;;;;;;;;;7.00;6.00;;;;;21.39;63.08;101607.25;5055313;28;45608;-71
2023/06/24 03:13:39;;;;;;;;;8.50;8.50;;;;;21.35;63.18;101595.06;5055097;28;45369;-73
2023/06/24 03:16:05;;;;;;;;;6.50;6.50;;;;;21.34;63.45;101601.38;5055402;28;45482;-74
2023/06/24 03:18:30;;;;;;;;;7.25;7.25;;;;;21.30;63.00;101598.03;5055425;28;45361;-73
2023/06/24 03:20:56;;;;;;;;;7.25;7.25;;;;;21.26;63.47;101599.22;5056021;28;45688;-73
2023/06/24 03:23:21;;;;;;;;;6.25;6.25;;;;;21.29;63.52;101600.84;5054358;28;48050;-72
2023/06/24 03:25:46;;;;;;;;;7.00;7.00;;;;;21.24;63.63;101595.78;5055367;28;45307;-72
2023/06/24 03:28:12;;;;;;;;;8.00;8.00;;;;;21.25;63.97;101599.34;5056120;28;45310;-72
2023/06/24 03:30:37;;;;;;;;;6.50;6.50;;;;;21.14;63.87;101602.75;5055806;27;45307;-74
2023/06/24 03:33:03;;;;;;;;;8.50;8.50;;;;;21.10;64.50;101593.22;5055010;28;46540;-74
2023/06/24 03:35:29;;;;;;;;;6.25;6.25;;;;;21.10;64.59;101603.91;5054226;28;45331;-74
2023/06/24 03:37:55;;;;;;;;;7.00;7.00;;;;;21.07;64.95;101593.44;5055138;28;45453;-71
2023/06/24 03:40:20;;;;;;;;;6.75;6.75;;;;;21.04;64.73;101590.97;5055326;28;45413;-74
2023/06/24 03:42:46;;;;;;;;;6.25;6.25;;;;;21.04;64.80;101599.00;5054912;28;45374;-71
2023/06/24 03:45:11;;;;;;;;;9.00;8.50;;;;;21.03;64.83;101611.50;5053846;28;45315;-71
2023/06/24 03:47:38;;;;;;;;;7.25;7.25;;;;;21.04;65.15;101607.84;5053817;28;45318;-71
2023/06/24 03:50:04;;;;;;;;;7.75;7.75;;;;;21.01;64.84;101603.59;5055354;28;45369;-72
2023/06/24 03:52:29;;;;;;;;;8.25;8.25;;;;;20.99;65.19;101604.66;5055441;28;46293;-70
2023/06/24 03:54:54;;;;;;;;;8.25;8.25;;;;;20.96;65.11;101610.19;5054635;28;45325;-70
2023/06/24 03:57:20;;;;;;;;;6.75;6.75;;;;;20.96;65.38;101608.41;5056756;28;45323;-73
2023/06/24 03:59:46;;;;;;;;;7.75;7.75;;;;;21.05;65.66;101611.41;5055276;28;45517;-69
2023/06/24 04:02:13;;;;;;;;;7.25;7.25;;;;;21.04;65.42;101623.06;5056071;28;45997;-72
2023/06/24 04:04:39;;;;;;;;;6.75;6.75;;;;;21.05;65.19;101620.28;5058687;28;45448;-74
2023/06/24 04:07:05;;;;;;;;;8.25;8.25;;;;;21.08;65.21;101625.41;5058559;28;45330;-72
2023/06/24 04:09:33;;;;;;;;;7.00;7.00;;;;;21.09;65.13;101626.28;5059431;28;45525;-71
2023/06/24 04:11:59;;;;;;;;;4.50;4.50;;;;;21.07;65.20;101625.53;5059111;28;45391;-71
2023/06/24 04:14:24;;;;;;;;;9.50;9.50;;;;;21.05;65.13;101622.09;5057188;28;45287;-71
2023/06/24 04:16:50;;;;;;;;;8.75;8.75;;;;;21.04;65.31;101618.56;5058551;28;45713;-72
2023/06/24 04:19:16;;;;;;;;;10.00;10.00;;;;;21.09;65.35;101618.25;5058834;28;45345;-71
2023/06/24 04:21:42;;;;;;;;;9.25;9.25;;;;;21.11;65.51;101614.50;5058319;28;47321;-70
2023/06/24 04:24:07;;;;;;;;;5.75;5.75;;;;;21.09;65.25;101618.25;5057969;28;45538;-70
2023/06/24 04:26:32;;;;;;;;;7.25;7.25;;;;;21.17;65.61;101619.44;5056955;28;45656;-71
2023/06/24 04:28:58;;;;;;;;;8.25;8.25;;;;;21.20;65.10;101618.38;5058338;28;45643;-71
2023/06/24 04:31:23;;;;;;;;;8.00;8.00;;;;;21.24;64.85;101619.88;5057977;28;45868;-75
2023/06/24 04:33:49;;;;;;;;;5.50;5.50;;;;;21.23;64.87;101620.84;5057989;28;45488;-72
2023/06/24 04:36:14;;;;;;;;;9.25;9.25;;;;;21.25;65.14;101626.09;5057575;28;50759;-72
2023/06/24 04:38:39;;;;;;;;;8.00;8.00;;;;;21.25;64.97;101605.53;5058177;28;45363;-71
2023/06/24 04:41:05;;;;;;;;;8.50;8.50;;;;;21.29;65.38;101615.06;5056767;28;46244;-72
2023/06/24 04:43:30;;;;;;;;;8.25;8.25;;;;;21.33;64.58;101614.84;5058618;28;45340;-71
2023/06/24 04:45:56;;;;;;;;;7.00;7.00;;;;;21.36;64.75;101615.50;5060306;28;45532;-71
2023/06/24 04:48:24;;;;;;;;;8.00;8.00;;;;;21.40;64.76;101622.34;5065381;28;45188;-70
2023/06/24 04:50:50;;;;;;;;;7.25;7.25;;;;;21.42;64.48;101625.78;5061237;28;46380;-69
2023/06/24 04:53:16;;;;;;;;;8.75;8.75;;;;;21.47;64.52;101627.28;5062291;28;45446;-74
2023/06/24 04:55:41;;;;;;;;;12.00;12.00;;;;;21.47;64.17;101624.59;5058432;28;45437;-71
2023/06/24 04:58:06;;;;;;;;;8.00;8.00;;;;;21.54;63.78;101628.56;5058934;28;45492;-72
2023/06/24 05:00:32;;;;;;;;;8.75;8.75;;;;;21.64;63.83;101626.97;5057366;28;57621;-74
2023/06/24 05:02:57;;;;;;;;;8.00;8.00;;;;;21.92;63.57;101626.84;5057351;28;51102;-75
2023/06/24 05:05:23;;;;;;;;;9.25;9.25;;;;;22.17;62.83;101620.53;5056435;28;45387;-75
2023/06/24 05:07:48;;;;;;;;;7.75;7.75;;;;;22.51;62.25;101625.25;5056652;28;45386;-75
2023/06/24 05:10:14;;;;;;;;;9.25;9.25;;;;;22.76;61.59;101622.44;5057592;28;46152;-74
2023/06/24 05:12:40;;;;;;;;;8.25;8.25;;;;;22.99;60.61;101621.66;5058551;28;45531;-74
2023/06/24 05:15:06;;;;;;;;;5.75;5.75;;;;;23.14;59.91;101616.97;5059867;28;45413;-74
2023/06/24 05:17:31;;;;;;;;;9.50;9.50;;;;;23.26;59.51;101620.53;5058189;28;45660;-71
2023/06/24 05:19:57;;;;;;;;;10.25;10.25;;;;;23.36;59.40;101608.13;5057525;28;45493;-71
2023/06/24 05:22:23;;;;;;;;;10.75;9.50;;;;;23.63;59.15;101629.25;5057804;28;45293;-71
2023/06/24 05:24:48;;;;;;;;;7.50;7.50;;;;;23.66;58.14;101621.91;5058392;28;45273;-70
2023/06/24 05:27:14;;;;;;;;;10.00;10.00;;;;;23.79;57.91;101633.38;5057154;28;45331;-70
2023/06/24 05:29:39;;;;;;;;;8.00;8.00;;;;;23.75;57.86;101619.38;5056936;28;48332;-75
2023/06/24 05:32:05;;;;;;;;;9.25;9.25;;;;;23.73;57.63;101624.00;5057705;28;45224;-75
2023/06/24 05:34:31;;;;;;;;;10.50;10.50;;;;;23.77;57.37;101628.16;5057052;28;45303;-74
2023/06/24 05:36:56;;;;;;;;;9.50;9.50;;;;;23.74;57.42;101631.09;5057329;28;45572;-75
2023/06/24 05:39:22;;;;;;;;;8.25;8.25;;;;;23.75;57.78;101627.41;5057026;28;46558;-72
2023/06/24 05:41:48;;;;;;;;;10.75;10.75;;;;;23.78;57.68;101632.53;5057060;28;51134;-72
2023/06/24 05:44:14;;;;;;;;;6.00;6.00;;;;;23.77;57.37;101630.84;5057552;28;45347;-73
2023/06/24 05:46:39;;;;;;;;;6.50;6.50;;;;;23.93;56.01;101633.16;5057710;28;45433;-75
2023/06/24 05:49:04;;;;;;;;;9.00;9.00;;;;;23.82;57.33;101634.97;5055899;28;55538;-77
2023/06/24 05:51:30;;;;;;;;;8.00;8.00;;;;;23.80;56.64;101626.19;5056923;28;45441;-73
2023/06/24 05:53:55;;;;;;;;;8.75;8.75;;;;;23.79;56.33;101628.00;5056789;28;45815;-73
2023/06/24 05:56:22;;;;;;;;;8.00;8.00;;;;;23.70;56.57;101635.00;5057018;28;45361;-75
2023/06/24 05:58:47;;;;;;;;;9.00;9.00;;;;;23.68;57.02;101636.06;5056507;28;46537;-74
2023/06/24 06:01:13;;;;;;;;;9.50;9.50;;;;;23.59;56.88;101632.31;5056380;28;45251;-73
2023/06/24 06:03:38;;;;;;;;;8.75;8.75;;;;;23.56;56.79;101630.69;5055373;28;45367;-73
2023/06/24 06:06:04;;;;;;;;;12.75;12.00;;;;;23.59;56.97;101635.84;5056493;28;45360;-72
2023/06/24 06:08:29;;;;;;;;;14.25;14.25;;;;;23.65;56.89;101637.19;5056230;28;45316;-74
2023/06/24 06:10:55;;;;;;;;;8.25;8.25;;;;;23.74;56.68;101633.78;5056027;28;45404;-74
2023/06/24 06:13:20;;;;;;;;;9.00;9.00;;;;;23.72;55.85;101641.09;5056337;28;45832;-74
2023/06/24 06:15:45;;;;;;;;;8.00;8.00;;;;;23.66;56.21;101638.91;5056615;28;45459;-73
2023/06/24 06:18:11;;;;;;;;;8.25;8.25;;;;;23.63;56.08;101641.84;5056353;28;47517;-72
2023/06/24 06:20:37;;;;;;;;;10.50;10.50;;;;;23.57;56.43;101624.34;5056882;28;45488;-76
2023/06/24 06:23:02;;;;;;;;;7.75;7.75;;;;;23.60;56.14;101629.47;5056328;28;45304;-71
2023/06/24 06:25:27;;;;;;;;;7.25;7.25;;;;;23.58;56.08;101642.19;5056086;28;45432;-72
2023/06/24 06:27:53;;;;;;;;;9.25;9.25;;;;;23.54;55.48;101626.44;5056452;28;45370;-71
2023/06/24 06:30:19;;;;;;;;;8.50;8.50;;;;;23.53;55.82;101636.31;5056412;28;45374;-72
2023/06/24 06:32:44;;;;;;;;;8.25;8.25;;;;;23.49;55.72;101640.22;5057591;28;45358;-73
2023/06/24 06:35:09;;;;;;;;;8.00;8.00;;;;;23.47;55.85;101629.63;5060361;28;45282;-71
2023/06/24 06:37:35;;;;;;;;;6.25;6.25;;;;;23.52;55.36;101633.78;5059648;28;56061;-70
2023/06/24 06:40:00;;;;;;;;;9.75;9.75;;;;;23.56;55.43;101637.91;5059550;28;45428;-72
2023/06/24 06:42:26;;;;;;;;;10.00;10.00;;;;;23.58;55.76;101635.97;5060100;28;45302;-76
2023/06/24 06:44:51;;;;;;;;;9.25;9.25;;;;;23.70;54.92;101624.25;5060597;28;45369;-75
2023/06/24 06:47:17;;;;;;;;;11.00;10.75;;;;;23.79;54.89;101641.44;5079483;28;46951;-72
2023/06/24 06:49:42;;;;;;;;;7.00;7.00;;;;;23.77;54.77;101646.09;5059689;28;45342;-74
2023/06/24 06:52:07;;;;;;;;;9.00;9.00;;;;;23.75;55.22;101639.97;5057032;28;45360;-74
2023/06/24 06:54:33;;;;;;;;;8.75;8.75;;;;;23.76;54.35;101637.19;5056042;28;45606;-76
2023/06/24 06:57:02;;;;;;;;;11.25;11.25;;;;;23.81;54.24;101628.75;5055640;28;46564;-69
2023/06/24 06:59:27;;;;;;;;;9.00;8.00;;;;;23.83;54.18;101634.84;5055387;28;45484;-71
2023/06/24 07:01:53;;;;;;;;;10.00;10.00;;;;;23.90;54.04;101629.84;5056995;28;45337;-72
2023/06/24 07:04:18;;;;;;;;;8.75;8.75;;;;;24.02;54.36;101628.03;5055575;28;45428;-74
2023/06/24 07:06:43;;;;;;;;;8.25;8.25;;;;;24.19;54.24;101626.66;5053892;28;56326;-72
2023/06/24 07:09:09;;;;;;;;;8.00;8.00;;;;;24.25;53.86;101620.78;5055888;28;45312;-71
2023/06/24 07:11:34;;;;;;;;;8.75;8.75;;;;;24.44;53.04;101619.28;5055699;28;45349;-72
2023/06/24 07:14:01;;;;;;;;;10.50;10.50;;;;;24.39;52.91;101616.09;5055761;28;45651;-69
2023/06/24 07:16:26;;;;;;;;;9.25;9.25;;;;;24.53;52.32;101631.94;5055358;28;45854;-74
2023/06/24 07:18:52;;;;;;;;;7.50;7.50;;;;;24.53;52.70;101618.50;5055274;28;45328;-72
2023/06/24 07:21:17;;;;;;;;;11.00;11.00;;;;;24.63;52.73;101615.88;5055378;28;45418;-76
2023/06/24 07:23:42;;;;;;;;;7.00;7.00;;;;;24.80;52.39;101619.88;5055856;28;45288;-72
2023/06/24 07:26:08;;;;;;;;;11.00;11.00;;;;;24.91;51.69;101625.19;5055205;28;45284;-73
2023/06/24 07:28:33;;;;;;;;;9.50;9.50;;;;;25.03;51.27;101625.13;5054186;28;45496;-74
2023/06/24 07:30:58;;;;;;;;;7.75;7.75;;;;;24.98;51.22;101612.09;5055222;28;45390;-75
2023/06/24 07:33:24;;;;;;;;;9.00;9.00;;;;;25.11;51.18;101622.63;5055369;28;45635;-72
2023/06/24 07:35:49;;;;;;;;;10.50;10.50;;;;;25.19;50.66;101622.84;5054903;28;45727;-73
2023/06/24 07:38:15;;;;;;;;;8.75;8.75;;;;;25.33;50.72;101623.47;5054280;28;45368;-74
2023/06/24 07:40:40;;;;;;;;;8.00;8.00;;;;;25.44;50.27;101620.69;5053921;28;45255;-74
2023/06/24 07:43:06;;;;;;;;;7.75;7.75;;;;;25.49;49.67;101621.19;5055618;28;45286;-72
2023/06/24 07:45:31;;;;;;;;;8.00;8.00;;;;;25.51;49.91;101624.63;5053358;28;47731;-70
2023/06/24 07:47:57;;;;;;;;;5.75;5.75;;;;;25.51;49.52;101619.22;5054807;28;45409;-74
2023/06/24 07:50:23;;;;;;;;;7.00;7.00;;;;;25.74;49.36;101624.41;5054082;28;45313;-77
2023/06/24 07:52:49;;;;;;;;;9.00;9.00;;;;;25.85;49.44;101623.44;5055275;28;45518;-73
2023/06/24 07:55:14;;;;;;;;;6.00;6.00;;;;;25.83;49.04;101614.66;5055013;28;45437;-75
2023/06/24 07:57:40;;;;;;;;;9.00;9.00;;;;;25.94;48.99;101619.91;5054775;28;45472;-75
2023/06/24 08:00:09;;;;;;;;;8.75;8.75;;;;;26.13;48.84;101620.13;5054099;28;45645;-76
2023/06/24 08:02:35;;;;;;;;;6.50;6.50;;;;;26.34;48.60;101620.88;5054884;28;45673;-72
2023/06/24 08:05:00;;;;;;;;;8.75;7.75;;;;;26.43;47.60;101624.59;5054516;28;46110;-72
2023/06/24 08:07:25;;;;;;;;;6.50;6.50;;;;;26.35;47.78;101614.50;5054140;28;45243;-73
2023/06/24 08:09:51;;;;;;;;;4.25;4.25;;;;;26.36;48.11;101621.59;5053096;28;45344;-74
2023/06/24 08:12:16;;;;;;;;;7.75;7.75;;;;;26.51;48.01;101618.50;5054868;28;45548;-72
2023/06/24 08:14:41;;;;;;;;;10.25;10.25;;;;;26.67;47.38;101617.94;5055057;28;49179;-72
2023/06/24 08:17:06;;;;;;;;;10.00;9.75;;;;;26.90;47.21;101613.13;5054686;28;45335;-76
2023/06/24 08:19:32;;;;;;;;;5.75;5.75;;;;;27.00;46.63;101612.25;5054957;28;48428;-72
2023/06/24 08:21:57;;;;;;;;;7.25;7.25;;;;;27.07;46.15;101607.97;5054398;28;45294;-72
2023/06/24 08:24:22;;;;;;;;;8.00;8.00;;;;;27.16;45.84;101609.78;5060618;28;52590;-78
2023/06/24 08:26:48;;;;;;;;;8.25;8.25;;;;;27.31;45.89;101609.31;5063089;28;45829;-72
2023/06/24 08:29:13;;;;;;;;;6.25;6.25;;;;;27.37;44.75;101615.00;5062332;28;45392;-77
2023/06/24 08:31:39;;;;;;;;;6.75;6.75;;;;;27.32;44.75;101590.28;5055460;28;45570;-74
2023/06/24 08:34:06;;;;;;;;;6.50;6.50;;;;;27.49;44.09;101622.91;5054041;28;51040;-72
2023/06/24 08:36:31;;;;;;;;;5.50;5.50;;;;;27.45;44.03;101616.94;5052607;28;45349;-73
2023/06/24 08:38:56;;;;;;;;;5.75;5.75;;;;;27.29;44.26;101605.91;5054230;28;45683;-73
2023/06/24 08:41:24;;;;;;;;;6.00;6.00;;;;;27.31;44.30;101601.22;5053642;28;45350;-73
2023/06/24 08:43:50;;;;;;;;;6.25;6.25;;;;;27.50;43.63;101611.16;5054294;28;47456;-70
2023/06/24 08:46:16;;;;;;;;;5.00;5.00;;;;;27.54;43.32;101605.28;5054397;28;45350;-69
2023/06/24 08:48:44;;;;;;;;;6.00;6.00;;;;;27.69;43.29;101613.75;5056752;28;45582;-70
2023/06/24 08:51:13;;;;;;;;;5.00;5.00;;;;;27.68;43.45;101605.81;5057928;28;45402;-71
2023/06/24 08:53:42;;;;;;;;;5.75;5.75;;;;;27.90;43.19;101606.41;5057303;28;47071;-72
2023/06/24 08:56:07;;;;;;;;;8.00;8.00;;;;;27.97;43.31;101596.69;5057156;28;45326;-76
2023/06/24 08:58:33;;;;;;;;;7.75;7.75;;;;;28.11;42.32;101588.03;5057445;28;45259;-70
2023/06/24 09:00:59;;;;;;;;;7.50;7.50;;;;;28.23;42.60;101588.72;5056308;28;45411;-70
2023/06/24 09:03:25;;;;;;;;;7.00;7.00;;;;;28.27;42.88;101591.94;5055812;28;45446;-73
2023/06/24 09:05:51;;;;;;;;;10.00;10.00;;;;;28.41;42.60;101575.16;5057095;28;45485;-71
2023/06/24 09:08:16;;;;;;;;;5.50;5.50;;;;;28.68;42.63;101588.75;5057410;28;55596;-69
2023/06/24 09:10:42;;;;;;;;;5.25;5.25;;;;;28.82;41.70;101579.25;5057963;28;45249;-74
2023/06/24 09:13:07;;;;;;;;;10.75;10.75;;;;;28.92;41.48;101579.16;5072772;27;46594;-72
2023/06/24 09:15:33;;;;;;;;;5.00;5.00;;;;;28.97;41.45;101576.81;5057145;28;45381;-74
2023/06/24 09:18:02;;;;;;;;;5.50;5.50;;;;;29.00;40.67;101582.78;5057210;28;45358;-70
2023/06/24 09:20:28;;;;;;;;;6.50;6.50;;;;;28.94;41.85;101580.69;5072399;28;45479;-70
2023/06/24 09:23:02;;;;;;;;;8.00;8.00;;;;;29.04;42.19;101577.88;5056763;28;46483;-73
2023/06/24 09:25:28;;;;;;;;;8.00;8.00;;;;;29.18;41.57;101568.31;5056894;28;45454;-72
2023/06/24 09:27:55;;;;;;;;;8.25;8.25;;;;;29.30;41.52;101563.47;5056855;28;45347;-75
2023/06/24 09:30:24;;;;;;;;;4.00;4.00;;;;;29.41;41.22;101571.34;5057540;28;45616;-74
2023/06/24 09:32:50;;;;;;;;;6.75;6.75;;;;;29.32;41.00;101561.44;5063284;28;45396;-72
2023/06/24 09:35:23;;;;;;;;;8.50;8.50;;;;;29.29;40.67;101564.47;5061900;28;45351;-75
2023/06/24 09:37:50;;;;;;;;;10.50;10.50;;;;;29.30;40.63;101556.19;5057716;28;45379;-75
2023/06/24 09:40:16;;;;;;;;;11.75;10.75;;;;;29.43;40.91;101549.50;5057156;28;45162;-73
2023/06/24 09:42:49;;;;;;;;;9.75;9.75;;;;;29.59;40.20;101544.13;5072131;28;46519;-73
2023/06/24 09:45:14;;;;;;;;;7.50;7.50;;;;;29.78;40.63;101536.75;5056670;28;45353;-77
2023/06/24 09:47:40;;;;;;;;;8.50;8.50;;;;;29.94;40.03;101545.94;5056531;28;45275;-75
2023/06/24 09:50:06;;;;;;;;;6.50;6.50;;;;;30.05;39.96;101542.06;5055906;28;45292;-71
2023/06/24 09:52:33;;;;;;;;;8.50;8.50;;;;;30.10;39.64;101540.56;5056481;28;45899;-75
2023/06/24 09:55:01;;;;;;;;;9.00;9.00;;;;;30.13;39.92;101536.66;5056281;28;45436;-74
2023/06/24 09:57:31;;;;;;;;;9.00;9.00;;;;;30.27;39.79;101529.72;5056702;28;45245;-77
2023/06/24 09:59:58;;;;;;;;;5.75;5.75;;;;;30.36;39.36;101534.13;5056088;28;45472;-74
2023/06/24 10:02:24;;;;;;;;;8.25;8.25;;;;;30.29;39.64;101527.69;5056809;28;45457;-75
2023/06/24 10:04:52;;;;;;;;;9.75;9.75;;;;;30.39;39.51;101516.66;5056872;28;45439;-78
2023/06/24 10:07:17;;;;;;;;;10.75;10.75;;;;;30.46;39.77;101521.22;5056146;28;45337;-77
2023/06/24 10:09:43;;;;;;;;;10.75;10.75;;;;;30.49;39.33;101506.47;5056757;28;45325;-72
2023/06/24 10:12:09;;;;;;;;;11.25;11.25;;;;;30.60;39.49;101516.16;5056894;28;46532;-76
2023/06/24 10:14:35;;;;;;;;;11.75;11.75;;;;;30.73;38.83;101519.19;5059746;28;45906;-75
2023/06/24 10:17:02;;;;;;;;;11.00;11.00;;;;;30.84;39.31;101511.72;5062207;28;45389;-75
2023/06/24 10:19:40;;;;;;;;;9.25;9.25;;;;;30.90;38.93;101513.72;5061247;28;45498;-77
2023/06/24 10:22:10;;;;;;;;;12.25;12.25;;;;;30.75;39.55;101497.28;5057486;28;47067;-74
2023/06/24 10:24:42;;;;;;;;;12.00;12.00;;;;;30.84;39.07;101489.97;5056782;28;45322;-75
2023/06/24 10:27:15;;;;;;;;;9.75;9.75;;;;;31.02;38.57;101496.03;5056232;28;45186;-75
2023/06/24 10:29:46;;;;;;;;;11.00;11.00;;;;;31.13;39.25;101494.78;5072255;28;45639;-77
2023/06/24 10:32:11;;;;;;;;;10.25;10.25;;;;;31.28;38.97;101488.63;5056099;28;45370;-74
2023/06/24 10:34:41;;;;;;;;;9.50;9.50;;;;;31.35;38.30;101491.50;5056651;28;45358;-72
2023/06/24 10:37:07;;;;;;;;;13.75;13.75;;;;;31.23;38.07;101486.47;5057548;28;45482;-74
2023/06/24 10:39:35;;;;;;;;;9.75;9.75;;;;;31.32;38.24;101484.56;5056012;28;45297;-78
2023/06/24 10:42:27;;;;;;;;;10.25;10.25;;;;;31.41;38.60;101482.63;5055841;28;45244;-74
2023/06/24 10:44:54;;;;;;;;;15.25;15.25;;;;;31.42;37.64;101468.88;5056281;28;45292;-75
2023/06/24 10:47:21;;;;;;;;;27.00;26.75;;;;;31.50;37.25;101470.69;5071092;28;45370;-74
2023/06/24 10:49:46;;;;;;;;;15.50;15.50;;;;;31.60;38.22;101468.59;5055983;28;45572;-73
2023/06/24 10:52:13;;;;;;;;;12.25;12.25;;;;;31.60;37.52;101465.88;5055138;28;45395;-75
2023/06/24 10:54:40;;;;;;;;;12.00;10.75;;;;;31.63;37.51;101465.50;5055295;28;45430;-73
2023/06/24 10:57:06;;;;;;;;;8.50;8.50;;;;;31.72;37.10;101460.00;5056136;28;45333;-74
2023/06/24 10:59:35;;;;;;;;;11.00;11.00;;;;;31.67;37.02;101459.69;5056025;28;45555;-73
2023/06/24 11:02:00;;;;;;;;;9.50;9.50;;;;;31.73;37.40;101458.97;5055296;28;46439;-77
2023/06/24 11:04:26;;;;;;;;;11.25;11.25;;;;;31.69;37.02;101452.22;5055718;28;45241;-76
2023/06/24 11:07:01;;;;;;;;;11.25;11.25;;;;;31.75;37.91;101460.53;5055692;28;45467;-76
2023/06/24 11:09:27;;;;;;;;;8.00;8.00;;;;;31.47;37.19;101444.72;5055864;28;45416;-77
2023/06/24 11:11:53;;;;;;;;;10.00;10.00;;;;;31.27;37.63;101438.88;5055791;28;47464;-78
2023/06/24 11:14:21;;;;;;;;;10.75;10.75;;;;;31.42;37.85;101449.00;5055682;28;45414;-76
2023/06/24 11:16:47;;;;;;;;;12.25;12.25;;;;;31.48;38.07;101437.41;5055312;28;45218;-70
2023/06/24 11:19:13;;;;;;;;;8.50;8.50;;;;;31.64;37.84;101447.34;5055090;28;45609;-73
2023/06/24 11:21:38;;;;;;;;;9.75;9.75;;;;;31.81;37.43;101444.53;5053984;28;48167;-73